createdAt,value
2017-10-13T00:01:22.107Z,14.70
2017-10-13T00:03:50.343Z,14.70
2017-10-13T00:06:19.379Z,14.60
2017-10-13T00:08:47.635Z,14.60
2017-10-13T00:11:15.878Z,14.50
2017-10-13T00:13:44.911Z,14.50
2017-10-13T00:16:13.211Z,14.50
2017-10-13T00:18:41.469Z,14.40
2017-10-13T00:21:09.721Z,14.40
2017-10-13T00:23:37.984Z,14.40
2017-10-13T00:26:06.335Z,14.40
2017-10-13T00:28:34.618Z,14.50
2017-10-13T00:31:02.869Z,14.50
2017-10-13T00:33:31.588Z,14.60
2017-10-13T00:35:59.837Z,14.60
2017-10-13T00:38:28.862Z,14.70
2017-10-13T00:40:57.148Z,14.60
2017-10-13T00:43:25.404Z,14.70
2017-10-13T00:45:53.651Z,14.70
2017-10-13T00:48:21.910Z,14.70
2017-10-13T00:50:50.167Z,14.60
2017-10-13T00:53:18.427Z,14.60
2017-10-13T00:55:46.933Z,14.70
2017-10-13T00:58:15.225Z,14.60
2017-10-13T01:00:43.494Z,14.70
2017-10-13T01:03:11.779Z,14.60
2017-10-13T01:05:40.055Z,14.60
2017-10-13T01:08:08.311Z,14.60
2017-10-13T01:10:37.435Z,14.60
2017-10-13T01:13:05.694Z,14.60
2017-10-13T01:15:34.706Z,14.60
2017-10-13T01:18:03.615Z,14.60
2017-10-13T01:20:31.892Z,14.60
2017-10-13T01:23:00.177Z,14.50
2017-10-13T01:25:28.437Z,14.50
2017-10-13T01:27:56.728Z,14.50
2017-10-13T01:30:25.918Z,14.40
2017-10-13T01:32:54.163Z,14.40
2017-10-13T01:35:23.187Z,14.30
2017-10-13T01:37:51.439Z,14.30
2017-10-13T01:40:20.490Z,14.40
2017-10-13T01:42:49.015Z,14.40
2017-10-13T01:45:17.250Z,14.40
2017-10-13T01:47:45.499Z,14.40
2017-10-13T01:50:14.513Z,14.40
2017-10-13T01:52:42.755Z,14.30
2017-10-13T01:55:11.094Z,14.30
2017-10-13T01:57:39.349Z,14.20
2017-10-13T02:00:08.476Z,14.20
2017-10-13T02:02:36.721Z,14.20
2017-10-13T02:05:05.747Z,14.00
2017-10-13T02:07:34.039Z,14.00
2017-10-13T02:10:02.319Z,14.00
2017-10-13T02:12:30.555Z,14.10
2017-10-13T02:14:59.589Z,13.90
2017-10-13T02:17:27.854Z,13.90
2017-10-13T02:19:56.864Z,13.90
2017-10-13T02:22:25.115Z,13.90
2017-10-13T02:24:54.174Z,13.90
2017-10-13T02:27:22.419Z,13.90
2017-10-13T02:29:50.746Z,13.90
2017-10-13T02:32:19.011Z,13.90
2017-10-13T02:34:47.286Z,13.80
2017-10-13T02:37:15.538Z,13.80
2017-10-13T02:39:43.861Z,13.80
2017-10-13T02:42:12.110Z,13.80
2017-10-13T02:44:41.442Z,13.60
2017-10-13T02:47:09.718Z,13.60
2017-10-13T02:49:37.966Z,13.60
2017-10-13T02:52:07.005Z,13.50
2017-10-13T02:54:35.281Z,13.50
2017-10-13T02:57:03.536Z,13.40
2017-10-13T02:59:32.548Z,13.40
2017-10-13T03:02:00.849Z,13.40
2017-10-13T03:04:29.131Z,13.40
2017-10-13T03:06:57.393Z,13.40
2017-10-13T03:09:25.687Z,13.40
2017-10-13T03:11:53.946Z,13.40
2017-10-13T03:14:22.248Z,13.40
2017-10-13T03:16:50.535Z,13.30
2017-10-13T03:19:18.771Z,13.30
2017-10-13T03:21:47.806Z,13.20
2017-10-13T03:24:16.044Z,13.20
2017-10-13T03:26:45.086Z,13.20
2017-10-13T03:29:13.326Z,13.20
2017-10-13T03:31:42.424Z,13.10
2017-10-13T03:34:11.468Z,13.20
2017-10-13T03:36:39.722Z,13.10
2017-10-13T03:39:08.749Z,13.10
2017-10-13T03:41:37.030Z,13.00
2017-10-13T03:44:05.298Z,13.00
2017-10-13T03:46:33.545Z,13.10
2017-10-13T03:49:02.577Z,13.10
2017-10-13T03:51:30.874Z,13.10
2017-10-13T03:53:59.140Z,13.10
2017-10-13T03:56:27.385Z,13.10
2017-10-13T03:58:55.655Z,13.10
2017-10-13T04:01:23.902Z,13.00
2017-10-13T04:03:52.160Z,13.00
2017-10-13T04:06:20.413Z,13.00
2017-10-13T04:08:49.438Z,12.90
2017-10-13T04:11:17.688Z,12.90
2017-10-13T04:13:46.720Z,13.00
2017-10-13T04:16:14.970Z,12.90
2017-10-13T04:18:44.182Z,13.00
2017-10-13T04:21:13.188Z,12.90
2017-10-13T04:23:41.472Z,12.90
2017-10-13T04:26:10.346Z,13.00
2017-10-13T04:28:39.371Z,13.00
2017-10-13T04:31:07.618Z,12.90
2017-10-13T04:33:35.881Z,13.00
2017-10-13T04:36:04.136Z,13.00
2017-10-13T04:38:32.412Z,13.00
2017-10-13T04:41:00.708Z,13.00
2017-10-13T04:43:28.970Z,13.00
2017-10-13T04:45:57.232Z,13.00
2017-10-13T04:48:26.246Z,13.00
2017-10-13T04:50:54.555Z,13.00
2017-10-13T04:53:22.816Z,13.00
2017-10-13T04:55:51.071Z,13.10
2017-10-13T04:58:19.321Z,13.10
2017-10-13T05:00:47.658Z,13.10
2017-10-13T05:03:15.902Z,13.20
2017-10-13T05:05:44.922Z,13.00
2017-10-13T05:08:13.166Z,13.00
2017-10-13T05:10:41.436Z,13.00
2017-10-13T05:13:09.788Z,13.00
2017-10-13T05:15:38.080Z,12.90
2017-10-13T05:18:06.319Z,13.00
2017-10-13T05:20:35.342Z,12.90
2017-10-13T05:23:03.594Z,12.90
2017-10-13T05:25:32.623Z,12.80
2017-10-13T05:28:00.864Z,12.70
2017-10-13T05:30:38.783Z,12.70
2017-10-13T05:33:09.268Z,12.70
2017-10-13T05:35:37.542Z,12.70
2017-10-13T05:38:05.799Z,12.70
2017-10-13T05:40:34.090Z,12.70
2017-10-13T05:43:02.366Z,12.60
2017-10-13T05:45:30.632Z,12.60
2017-10-13T05:47:58.883Z,12.60
2017-10-13T05:50:27.216Z,12.70
2017-10-13T05:52:55.468Z,12.70
2017-10-13T05:55:23.742Z,12.80
2017-10-13T05:57:52.755Z,12.90
2017-10-13T06:00:21.039Z,12.90
2017-10-13T06:02:49.287Z,13.00
2017-10-13T06:05:18.303Z,13.00
2017-10-13T06:07:47.334Z,13.00
2017-10-13T06:10:15.582Z,13.00
2017-10-13T06:12:44.721Z,13.10
2017-10-13T06:15:12.971Z,13.10
2017-10-13T06:17:41.251Z,13.20
2017-10-13T06:20:09.504Z,13.30
2017-10-13T06:22:37.767Z,13.30
2017-10-13T06:25:06.028Z,13.30
2017-10-13T06:27:34.299Z,13.30
2017-10-13T06:30:02.556Z,13.30
2017-10-13T06:32:30.870Z,13.20
2017-10-13T06:34:59.210Z,13.20
2017-10-13T06:37:28.322Z,13.30
2017-10-13T06:39:57.351Z,13.30
2017-10-13T06:42:25.638Z,13.30
2017-10-13T06:44:53.926Z,13.40
2017-10-13T06:47:22.408Z,13.40
2017-10-13T06:49:50.682Z,13.40
2017-10-13T06:52:18.958Z,13.40
2017-10-13T06:54:47.251Z,13.40
2017-10-13T06:57:15.534Z,13.40
2017-10-13T06:59:43.786Z,13.50
2017-10-13T07:02:12.127Z,13.40
2017-10-13T07:04:40.389Z,13.50
2017-10-13T07:07:08.666Z,13.50
2017-10-13T07:09:37.227Z,13.60
2017-10-13T07:12:05.498Z,13.60
2017-10-13T07:14:33.755Z,13.60
2017-10-13T07:17:02.783Z,13.60
2017-10-13T07:19:31.038Z,13.60
2017-10-13T07:21:59.338Z,13.60
2017-10-13T07:24:27.618Z,13.60
2017-10-13T07:26:55.881Z,13.70
2017-10-13T07:29:24.164Z,13.70
2017-10-13T07:31:52.483Z,13.60
2017-10-13T07:34:20.760Z,13.70
2017-10-13T07:36:49.024Z,13.80
2017-10-13T07:39:18.146Z,13.90
2017-10-13T07:41:46.410Z,14.00
2017-10-13T07:44:15.736Z,14.00
2017-10-13T07:46:43.978Z,14.10
2017-10-13T07:49:12.267Z,14.20
2017-10-13T07:51:40.522Z,14.30
2017-10-13T07:54:09.570Z,14.40
2017-10-13T07:56:37.819Z,14.40
2017-10-13T07:59:06.135Z,14.40
2017-10-13T08:01:34.386Z,14.50
2017-10-13T08:04:02.660Z,14.50
2017-10-13T08:06:31.690Z,14.60
2017-10-13T08:08:59.956Z,14.60
2017-10-13T08:11:28.210Z,14.60
2017-10-13T08:13:57.239Z,14.50
2017-10-13T08:16:25.499Z,14.50
2017-10-13T08:18:54.527Z,14.50
2017-10-13T08:21:22.775Z,14.50
2017-10-13T08:23:51.818Z,14.60
2017-10-13T08:26:20.106Z,14.60
2017-10-13T08:28:48.369Z,14.70
2017-10-13T08:31:16.632Z,14.70
2017-10-13T08:33:44.938Z,14.80
2017-10-13T08:36:13.206Z,14.90
2017-10-13T08:38:41.493Z,15.00
2017-10-13T08:41:09.755Z,15.10
2017-10-13T08:43:38.015Z,15.10
2017-10-13T08:46:06.323Z,15.10
2017-10-13T08:48:34.611Z,15.20
2017-10-13T08:51:02.870Z,15.20
2017-10-13T08:53:31.124Z,15.20
2017-10-13T08:56:00.156Z,15.30
2017-10-13T08:58:28.451Z,15.30
2017-10-13T09:00:56.753Z,15.30
2017-10-13T09:03:25.002Z,15.30
2017-10-13T09:05:53.276Z,15.40
2017-10-13T09:08:21.526Z,15.50
2017-10-13T09:10:50.561Z,15.40
2017-10-13T09:13:18.814Z,15.40
2017-10-13T09:15:48.430Z,15.60
2017-10-13T09:18:17.443Z,15.50
2017-10-13T09:20:45.748Z,15.50
2017-10-13T09:23:15.929Z,15.60
2017-10-13T09:25:44.954Z,15.80
2017-10-13T09:28:13.234Z,15.80
2017-10-13T09:30:42.242Z,16.10
2017-10-13T09:33:10.555Z,16.00
2017-10-13T09:35:39.555Z,16.00
2017-10-13T09:38:07.801Z,16.10
2017-10-13T09:40:36.088Z,16.20
2017-10-13T09:43:04.347Z,16.50
2017-10-13T09:45:33.375Z,17.00
2017-10-13T09:48:01.643Z,17.00
2017-10-13T09:50:29.895Z,17.40
2017-10-13T09:52:58.951Z,17.80
2017-10-13T09:55:27.197Z,17.80
2017-10-13T09:57:55.466Z,18.00
2017-10-13T10:00:24.484Z,18.50
2017-10-13T10:02:52.759Z,18.50
2017-10-13T10:05:21.005Z,18.80
2017-10-13T10:07:49.278Z,18.90
2017-10-13T10:10:17.535Z,19.00
2017-10-13T10:12:45.796Z,19.00
2017-10-13T10:15:14.048Z,19.00
2017-10-13T10:17:43.091Z,19.20
2017-10-13T10:20:11.342Z,19.20
2017-10-13T10:22:39.614Z,19.20
2017-10-13T10:25:08.663Z,19.10
2017-10-13T10:27:36.928Z,19.10
2017-10-13T10:30:05.178Z,19.10
2017-10-13T10:32:33.450Z,19.10
2017-10-13T10:35:02.497Z,19.10
2017-10-13T10:37:30.772Z,19.10
2017-10-13T10:39:59.019Z,19.10
2017-10-13T10:42:28.049Z,19.20
2017-10-13T10:44:56.336Z,19.10
2017-10-13T10:47:24.620Z,19.20
2017-10-13T10:49:52.866Z,19.30
2017-10-13T10:52:21.181Z,19.60
2017-10-13T10:54:49.464Z,19.80
2017-10-13T10:57:17.759Z,19.90
2017-10-13T10:59:46.033Z,20.10
2017-10-13T11:02:14.288Z,20.30
2017-10-13T11:04:42.543Z,20.40
2017-10-13T11:07:11.564Z,20.40
2017-10-13T11:09:39.839Z,20.40
2017-10-13T11:12:08.148Z,20.30
2017-10-13T11:14:36.410Z,20.30
2017-10-13T11:17:04.701Z,20.30
2017-10-13T11:19:32.971Z,20.40
2017-10-13T11:22:01.238Z,20.50
2017-10-13T11:24:30.265Z,20.40
2017-10-13T11:26:58.519Z,20.40
2017-10-13T11:29:26.790Z,20.40
2017-10-13T11:31:55.807Z,20.20
2017-10-13T11:34:24.078Z,20.20
2017-10-13T11:36:53.092Z,20.20
2017-10-13T11:39:21.390Z,20.20
2017-10-13T11:41:49.687Z,20.00
2017-10-13T11:44:17.954Z,20.10
2017-10-13T11:46:46.233Z,20.20
2017-10-13T11:49:14.498Z,20.10
2017-10-13T11:51:42.790Z,20.10
2017-10-13T11:54:11.070Z,20.20
2017-10-13T11:56:39.359Z,20.20
2017-10-13T11:59:07.606Z,20.20
2017-10-13T12:01:35.867Z,20.20
2017-10-13T12:04:04.204Z,20.20
2017-10-13T12:06:32.482Z,20.30
2017-10-13T12:09:00.769Z,20.40
2017-10-13T12:11:29.064Z,20.40
2017-10-13T12:13:57.311Z,20.50
2017-10-13T12:16:25.629Z,20.60
2017-10-13T12:18:53.874Z,20.50
2017-10-13T12:21:22.175Z,20.30
2017-10-13T12:23:50.430Z,20.20
2017-10-13T12:26:18.704Z,20.20
2017-10-13T12:28:47.723Z,20.10
2017-10-13T12:31:17.653Z,20.00
2017-10-13T12:33:45.943Z,20.00
2017-10-13T12:36:14.210Z,20.00
2017-10-13T12:38:42.510Z,19.80
2017-10-13T12:41:10.794Z,19.70
2017-10-13T12:43:39.058Z,19.60
2017-10-13T12:46:07.328Z,19.60
2017-10-13T12:48:35.589Z,19.60
2017-10-13T12:51:04.634Z,19.50
2017-10-13T12:53:32.881Z,19.50
2017-10-13T12:56:01.175Z,19.50
2017-10-13T12:58:29.468Z,19.60
2017-10-13T13:00:57.743Z,19.60
2017-10-13T13:03:26.094Z,19.60
2017-10-13T13:05:54.407Z,19.70
2017-10-13T13:08:22.673Z,19.80
2017-10-13T13:10:51.899Z,19.70
2017-10-13T13:13:20.176Z,19.80
2017-10-13T13:15:48.432Z,19.80
2017-10-13T13:18:16.715Z,19.90
2017-10-13T13:20:45.021Z,20.00
2017-10-13T13:23:13.291Z,19.90
2017-10-13T13:25:41.580Z,19.90
2017-10-13T13:28:09.857Z,20.00
2017-10-13T13:30:38.138Z,20.00
2017-10-13T13:33:06.407Z,20.00
2017-10-13T13:35:34.656Z,20.00
2017-10-13T13:38:03.688Z,19.70
2017-10-13T13:40:31.940Z,19.70
2017-10-13T13:43:00.962Z,19.80
2017-10-13T13:45:29.208Z,19.80
2017-10-13T13:47:57.474Z,19.80
2017-10-13T13:50:25.726Z,19.70
2017-10-13T13:52:53.981Z,19.70
2017-10-13T13:55:22.992Z,19.80
2017-10-13T13:57:51.250Z,19.80
2017-10-13T14:00:20.297Z,19.70
2017-10-13T14:02:48.590Z,19.70
2017-10-13T14:05:16.942Z,19.80
2017-10-13T14:07:45.219Z,19.70
2017-10-13T14:10:13.461Z,19.70
2017-10-13T14:12:41.742Z,19.80
2017-10-13T14:15:10.751Z,19.80
2017-10-13T14:17:39.784Z,19.80
2017-10-13T14:20:08.044Z,19.80
2017-10-13T14:22:36.286Z,19.70
2017-10-13T14:25:04.547Z,19.70
2017-10-13T14:27:32.815Z,19.70
2017-10-13T14:30:01.094Z,19.70
2017-10-13T14:32:29.343Z,19.80
2017-10-13T14:34:58.362Z,19.80
2017-10-13T14:37:26.647Z,19.70
2017-10-13T14:39:54.906Z,19.80
2017-10-13T14:42:23.215Z,19.60
2017-10-13T14:44:51.480Z,19.60
2017-10-13T14:47:19.739Z,19.60
2017-10-13T14:49:48.759Z,19.50
2017-10-13T14:52:17.001Z,19.50
2017-10-13T14:54:45.255Z,19.50
2017-10-13T14:57:14.268Z,19.40
2017-10-13T14:59:42.530Z,19.40
2017-10-13T15:02:10.789Z,19.50
2017-10-13T15:04:39.035Z,19.50
2017-10-13T15:07:08.056Z,19.30
2017-10-13T15:09:36.389Z,19.30
2017-10-13T15:12:04.636Z,19.30
2017-10-13T15:14:32.935Z,19.30
2017-10-13T15:17:01.200Z,19.40
2017-10-13T15:19:29.452Z,19.30
2017-10-13T15:21:57.706Z,19.40
2017-10-13T15:24:26.044Z,19.40
2017-10-13T15:26:55.371Z,19.40
2017-10-13T15:29:29.448Z,19.30
2017-10-13T15:32:03.487Z,19.20
2017-10-13T15:34:37.439Z,19.20
2017-10-13T15:37:07.200Z,19.30
2017-10-13T15:39:41.050Z,19.20
2017-10-13T15:42:15.003Z,19.10
2017-10-13T15:44:44.041Z,19.10
2017-10-13T15:47:17.944Z,19.10
2017-10-13T15:52:49.971Z,19.10
2017-10-13T15:55:18.226Z,19.10
2017-10-13T15:57:46.472Z,19.10
2017-10-13T16:00:15.505Z,19.00
2017-10-13T16:02:43.786Z,19.00
2017-10-13T16:05:12.039Z,19.00
2017-10-13T16:07:40.355Z,19.00
2017-10-13T16:10:08.627Z,19.10
2017-10-13T16:12:36.888Z,19.10
2017-10-13T16:15:05.906Z,18.90
2017-10-13T16:17:34.185Z,18.90
2017-10-13T16:20:02.429Z,18.90
2017-10-13T16:22:31.447Z,18.90
2017-10-13T16:24:59.687Z,18.90
2017-10-13T16:27:28.047Z,18.90
2017-10-13T16:29:56.299Z,18.90
2017-10-13T16:32:25.310Z,18.80
2017-10-13T16:34:53.551Z,18.80
2017-10-13T16:37:22.594Z,18.80
2017-10-13T16:39:50.886Z,18.80
2017-10-13T16:42:19.152Z,18.80
2017-10-13T16:44:47.388Z,18.80
2017-10-13T16:47:15.647Z,18.70
2017-10-13T16:49:43.896Z,18.80
2017-10-13T16:52:12.150Z,18.80
2017-10-13T16:54:41.169Z,18.70
2017-10-13T16:57:09.431Z,18.70
2017-10-13T16:59:37.679Z,18.80
2017-10-13T17:02:06.751Z,18.70
2017-10-13T17:04:34.987Z,18.70
2017-10-13T17:07:03.262Z,18.70
2017-10-13T17:09:32.288Z,18.70
2017-10-13T17:12:00.578Z,18.70
2017-10-13T17:14:28.847Z,18.70
2017-10-13T17:16:57.090Z,18.70
2017-10-13T17:19:25.364Z,18.70
2017-10-13T17:21:53.610Z,18.60
2017-10-13T17:24:21.871Z,18.60
2017-10-13T17:26:50.129Z,18.70
2017-10-13T17:29:19.152Z,18.60
2017-10-13T17:31:47.408Z,18.50
2017-10-13T17:34:16.437Z,18.60
2017-10-13T17:36:44.949Z,18.50
2017-10-13T17:39:13.223Z,18.60
2017-10-13T17:41:41.492Z,18.50
2017-10-13T17:44:09.756Z,18.50
2017-10-13T17:46:37.998Z,18.60
2017-10-13T17:49:06.345Z,18.60
2017-10-13T17:51:34.595Z,18.60
2017-10-13T17:54:02.871Z,18.60
2017-10-13T17:56:32.238Z,18.50
2017-10-13T17:59:00.541Z,18.50
2017-10-13T18:01:28.781Z,18.50
2017-10-13T18:03:57.695Z,18.50
2017-10-13T18:06:26.034Z,18.60
2017-10-13T18:08:54.328Z,18.50
2017-10-13T18:11:22.586Z,18.60
2017-10-13T18:13:50.900Z,18.50
2017-10-13T18:16:19.160Z,18.50
2017-10-13T18:18:47.406Z,18.50
2017-10-13T18:21:16.439Z,18.40
2017-10-13T18:23:44.696Z,18.40
2017-10-13T18:26:13.894Z,18.50
2017-10-13T18:28:42.902Z,18.50
2017-10-13T18:31:11.172Z,18.50
2017-10-13T18:33:40.181Z,18.40
2017-10-13T18:36:08.487Z,18.30
2017-10-13T18:38:36.740Z,18.40
2017-10-13T18:41:05.050Z,18.40
2017-10-13T18:43:34.067Z,18.40
2017-10-13T18:46:02.534Z,18.30
2017-10-13T18:48:30.810Z,18.40
2017-10-13T18:50:59.095Z,18.40
2017-10-13T18:53:27.346Z,18.40
2017-10-13T18:55:55.611Z,18.40
2017-10-13T18:58:24.647Z,18.50
2017-10-13T19:00:52.935Z,18.50
2017-10-13T19:03:21.219Z,18.50
2017-10-13T19:05:49.486Z,18.50
2017-10-13T19:08:17.738Z,18.40
2017-10-13T19:10:46.789Z,18.50
2017-10-13T19:13:15.069Z,18.50
2017-10-13T19:15:43.307Z,18.40
2017-10-13T19:18:11.571Z,18.40
2017-10-13T19:20:40.592Z,18.40
2017-10-13T19:23:08.860Z,18.40
2017-10-13T19:25:37.880Z,18.40
2017-10-13T19:28:06.161Z,18.40
2017-10-13T19:30:34.407Z,18.40
2017-10-13T19:33:03.455Z,18.40
2017-10-13T19:35:31.736Z,18.30
2017-10-13T19:38:00.018Z,18.30
2017-10-13T19:40:28.268Z,18.40
2017-10-13T19:42:56.532Z,18.40
2017-10-13T19:45:25.577Z,18.40
2017-10-13T19:47:53.848Z,18.30
2017-10-13T19:50:22.111Z,18.40
2017-10-13T19:52:50.387Z,18.40
2017-10-13T19:55:19.402Z,18.40
2017-10-13T19:57:47.658Z,18.40
2017-10-13T20:00:16.695Z,18.40
2017-10-13T20:02:44.998Z,18.30
2017-10-13T20:05:13.246Z,18.30
2017-10-13T20:07:41.512Z,18.30
2017-10-13T20:10:09.759Z,18.30
2017-10-13T20:12:38.025Z,18.30
2017-10-13T20:15:06.275Z,18.20
2017-10-13T20:17:34.698Z,18.20
2017-10-13T20:20:02.920Z,18.20
2017-10-13T20:22:41.523Z,18.20
2017-10-13T20:25:12.823Z,18.10
2017-10-13T20:27:41.103Z,18.10
2017-10-13T20:30:09.372Z,18.10
2017-10-13T20:32:38.421Z,18.00
2017-10-13T20:35:06.757Z,18.00
2017-10-13T20:37:35.024Z,17.90
2017-10-13T20:40:03.323Z,17.90
2017-10-13T20:42:31.707Z,17.90
2017-10-13T20:44:59.956Z,17.80
2017-10-13T20:47:28.970Z,17.70
2017-10-13T20:49:57.231Z,17.70
2017-10-13T20:52:26.244Z,17.60
2017-10-13T20:54:54.547Z,17.60
2017-10-13T20:57:22.854Z,17.60
2017-10-13T20:59:51.182Z,17.50
2017-10-13T21:02:20.200Z,17.50
2017-10-13T21:04:48.490Z,17.50
2017-10-13T21:07:16.745Z,17.50
2017-10-13T21:09:45.771Z,17.50
2017-10-13T21:12:14.021Z,17.40
2017-10-13T21:14:42.327Z,17.40
2017-10-13T21:17:10.580Z,17.40
2017-10-13T21:19:38.854Z,17.40
2017-10-13T21:22:07.874Z,17.40
2017-10-13T21:24:36.147Z,17.40
2017-10-13T21:27:05.161Z,17.30
2017-10-13T21:29:33.432Z,17.30
2017-10-13T21:32:01.681Z,17.30
2017-10-13T21:34:30.720Z,17.20
2017-10-13T21:36:58.971Z,17.20
2017-10-13T21:39:28.007Z,17.10
2017-10-13T21:41:56.254Z,17.10
2017-10-13T21:44:25.302Z,17.10
2017-10-13T21:46:53.570Z,17.10
2017-10-13T21:49:21.836Z,17.10
2017-10-13T21:51:50.103Z,17.10
2017-10-13T21:54:18.356Z,17.10
2017-10-13T21:56:46.694Z,17.10
2017-10-13T21:59:14.947Z,17.00
2017-10-13T22:01:43.275Z,17.10
2017-10-13T22:04:11.535Z,17.10
2017-10-13T22:06:39.803Z,17.00
2017-10-13T22:09:08.198Z,17.00
2017-10-13T22:11:36.471Z,17.00
2017-10-13T22:14:04.721Z,17.00
2017-10-13T22:16:33.758Z,17.00
2017-10-13T22:19:02.020Z,17.00
2017-10-13T22:21:30.285Z,17.00
2017-10-13T22:23:59.303Z,16.90
2017-10-13T22:26:27.571Z,16.90
2017-10-13T22:28:55.828Z,16.90
2017-10-13T22:31:24.863Z,16.90
2017-10-13T22:33:53.109Z,16.80
2017-10-13T22:36:22.134Z,16.80
2017-10-13T22:38:50.426Z,16.80
2017-10-13T22:41:18.739Z,16.80
2017-10-13T22:43:46.987Z,16.80
2017-10-13T22:46:15.247Z,16.80
2017-10-13T22:48:43.562Z,16.80
2017-10-13T22:51:11.838Z,16.80
2017-10-13T22:53:40.108Z,16.80
2017-10-13T22:56:08.346Z,16.90
2017-10-13T22:58:36.616Z,16.90
2017-10-13T23:01:06.370Z,16.90
2017-10-13T23:03:34.819Z,16.90
2017-10-13T23:06:03.061Z,16.90
2017-10-13T23:08:31.336Z,16.90
2017-10-13T23:10:59.626Z,16.90
2017-10-13T23:13:28.663Z,16.90
2017-10-13T23:15:56.910Z,16.90
2017-10-13T23:18:25.171Z,16.90
2017-10-13T23:20:53.417Z,16.90
2017-10-13T23:23:22.463Z,16.90
2017-10-13T23:25:50.733Z,16.90
2017-10-13T23:28:19.003Z,16.90
2017-10-13T23:30:47.307Z,16.90
2017-10-13T23:33:15.571Z,16.80
2017-10-13T23:35:43.834Z,16.90
2017-10-13T23:38:12.324Z,16.90
2017-10-13T23:40:41.325Z,16.90
2017-10-13T23:43:09.635Z,16.90
2017-10-13T23:45:37.883Z,16.90
2017-10-13T23:48:06.157Z,16.90
2017-10-13T23:50:34.415Z,16.90
2017-10-13T23:53:02.675Z,16.90
2017-10-13T23:55:30.922Z,16.90
2017-10-13T23:57:59.196Z,16.90
